createdAt,value
2018-06-02T00:01:15.161Z,77.90
2018-06-02T00:03:43.521Z,77.37
2018-06-02T00:06:11.856Z,77.50
2018-06-02T00:08:40.216Z,77.92
2018-06-02T00:11:08.607Z,77.78
2018-06-02T00:13:36.916Z,77.73
2018-06-02T00:16:05.257Z,78.27
2018-06-02T00:18:33.611Z,78.20
2018-06-02T00:21:01.955Z,78.46
2018-06-02T00:23:30.304Z,78.26
2018-06-02T00:25:58.645Z,78.35
2018-06-02T00:28:27.005Z,78.20
2018-06-02T00:30:55.340Z,75.18
2018-06-02T00:33:23.700Z,76.72
2018-06-02T00:35:52.805Z,77.61
2018-06-02T00:38:21.180Z,78.08
2018-06-02T00:40:49.516Z,77.88
2018-06-02T00:43:17.852Z,78.70
2018-06-02T00:45:46.208Z,78.81
2018-06-02T00:48:14.544Z,78.75
2018-06-02T00:50:42.909Z,78.53
2018-06-02T00:53:11.253Z,77.99
2018-06-02T00:55:39.640Z,78.25
2018-06-02T00:58:07.968Z,78.20
2018-06-02T01:00:36.332Z,78.08
2018-06-02T01:03:04.668Z,78.15
2018-06-02T01:05:33.030Z,78.71
2018-06-02T01:08:01.360Z,78.69
2018-06-02T01:10:29.716Z,78.93
2018-06-02T01:12:58.058Z,78.88
2018-06-02T01:15:27.220Z,78.96
2018-06-02T01:17:55.548Z,78.81
2018-06-02T01:20:23.909Z,79.26
2018-06-02T01:22:52.236Z,78.96
2018-06-02T01:25:20.593Z,79.28
2018-06-02T01:27:48.925Z,79.58
2018-06-02T01:30:17.281Z,79.28
2018-06-02T01:32:45.614Z,79.47
2018-06-02T01:35:13.972Z,79.42
2018-06-02T01:37:42.306Z,79.38
2018-06-02T01:40:10.669Z,79.70
2018-06-02T01:42:39.000Z,80.02
2018-06-02T01:45:07.332Z,79.51
2018-06-02T01:47:35.683Z,79.58
2018-06-02T01:50:04.018Z,79.19
2018-06-02T01:52:32.380Z,79.16
2018-06-02T01:55:00.707Z,79.16
2018-06-02T01:57:29.061Z,79.65
2018-06-02T01:59:57.392Z,79.69
2018-06-02T02:02:25.753Z,79.83
2018-06-02T02:04:54.088Z,79.57
2018-06-02T02:07:22.445Z,79.85
2018-06-02T02:09:50.772Z,79.70
2018-06-02T02:12:19.124Z,79.96
2018-06-02T02:14:47.513Z,79.77
2018-06-02T02:17:15.849Z,79.64
2018-06-02T02:19:44.181Z,79.65
2018-06-02T02:22:12.541Z,79.17
2018-06-02T02:24:40.868Z,78.83
2018-06-02T02:27:09.216Z,79.26
2018-06-02T02:29:37.556Z,79.39
2018-06-02T02:32:05.914Z,79.44
2018-06-02T02:34:34.248Z,79.32
2018-06-02T02:37:02.595Z,79.20
2018-06-02T02:39:30.934Z,79.34
2018-06-02T02:41:59.292Z,79.36
2018-06-02T02:44:27.624Z,79.45
2018-06-02T02:46:55.981Z,79.56
2018-06-02T02:49:24.304Z,79.14
2018-06-02T02:51:52.660Z,79.03
2018-06-02T02:54:20.997Z,78.68
2018-06-02T02:56:49.356Z,78.26
2018-06-02T02:59:17.696Z,79.03
2018-06-02T03:01:46.052Z,78.63
2018-06-02T03:04:14.396Z,78.89
2018-06-02T03:06:42.757Z,78.91
2018-06-02T03:09:11.093Z,78.82
2018-06-02T03:11:39.461Z,79.17
2018-06-02T03:14:07.788Z,79.09
2018-06-02T03:16:36.157Z,79.16
2018-06-02T03:19:04.497Z,79.24
2018-06-02T03:21:32.853Z,79.44
2018-06-02T03:24:01.188Z,79.53
2018-06-02T03:26:29.549Z,79.53
2018-06-02T03:28:57.884Z,79.81
2018-06-02T03:31:26.245Z,79.66
2018-06-02T03:33:54.591Z,79.56
2018-06-02T03:36:22.944Z,79.39
2018-06-02T03:38:51.289Z,79.03
2018-06-02T03:41:19.665Z,78.85
2018-06-02T03:43:47.999Z,79.30
2018-06-02T03:46:16.341Z,79.48
2018-06-02T03:48:44.701Z,79.49
2018-06-02T03:51:13.041Z,79.30
2018-06-02T03:53:41.393Z,79.26
2018-06-02T03:56:09.731Z,79.12
2018-06-02T03:58:38.100Z,78.96
2018-06-02T04:01:06.441Z,78.93
2018-06-02T04:03:34.801Z,78.99
2018-06-02T04:06:03.136Z,79.21
2018-06-02T04:08:31.501Z,78.63
2018-06-02T04:10:59.836Z,79.08
2018-06-02T04:13:28.204Z,78.79
2018-06-02T04:15:56.594Z,78.84
2018-06-02T04:18:24.891Z,78.18
2018-06-02T04:20:53.232Z,78.62
2018-06-02T04:23:21.593Z,78.79
2018-06-02T04:25:49.934Z,78.65
2018-06-02T04:28:18.287Z,78.56
2018-06-02T04:30:46.629Z,78.69
2018-06-02T04:33:14.989Z,78.54
2018-06-02T04:35:43.332Z,78.75
2018-06-02T04:38:11.685Z,78.79
2018-06-02T04:40:40.026Z,78.53
2018-06-02T04:43:08.385Z,77.66
2018-06-02T04:45:36.720Z,78.09
2018-06-02T04:48:05.083Z,78.76
2018-06-02T04:50:33.420Z,79.11
2018-06-02T04:53:01.778Z,78.88
2018-06-02T04:55:30.116Z,78.96
2018-06-02T04:57:58.476Z,78.85
2018-06-02T05:00:26.809Z,78.70
2018-06-02T05:02:55.172Z,78.81
2018-06-02T05:05:23.535Z,78.36
2018-06-02T05:07:51.872Z,78.59
2018-06-02T05:10:20.208Z,78.43
2018-06-02T05:12:48.571Z,78.43
2018-06-02T05:15:16.912Z,77.94
2018-06-02T05:17:45.280Z,78.28
2018-06-02T05:20:13.621Z,78.24
2018-06-02T05:22:41.976Z,78.46
2018-06-02T05:25:10.317Z,78.51
2018-06-02T05:27:38.672Z,78.20
2018-06-02T05:30:07.008Z,78.57
2018-06-02T05:32:35.364Z,78.48
2018-06-02T05:35:03.705Z,78.07
2018-06-02T05:37:32.066Z,78.39
2018-06-02T05:40:00.403Z,77.91
2018-06-02T05:42:28.756Z,77.78
2018-06-02T05:44:57.123Z,77.83
2018-06-02T05:47:25.466Z,77.48
2018-06-02T05:49:53.828Z,77.54
2018-06-02T05:52:22.188Z,77.79
2018-06-02T05:54:50.554Z,77.53
2018-06-02T05:57:18.892Z,77.72
2018-06-02T05:59:47.258Z,77.42
2018-06-02T06:02:15.601Z,77.00
2018-06-02T06:04:43.960Z,76.93
2018-06-02T06:07:12.304Z,76.94
2018-06-02T06:09:40.664Z,77.30
2018-06-02T06:12:09.015Z,77.34
2018-06-02T06:14:37.376Z,77.00
2018-06-02T06:17:05.709Z,76.72
2018-06-02T06:19:34.116Z,76.51
2018-06-02T06:22:02.404Z,76.86
2018-06-02T06:24:30.769Z,76.66
2018-06-02T06:26:59.122Z,76.42
2018-06-02T06:29:27.466Z,76.33
2018-06-02T06:31:55.798Z,76.44
2018-06-02T06:34:24.153Z,76.47
2018-06-02T06:36:52.488Z,76.49
2018-06-02T06:39:20.840Z,76.43
2018-06-02T06:41:49.179Z,76.37
2018-06-02T06:44:17.537Z,76.23
2018-06-02T06:46:45.874Z,76.43
2018-06-02T06:49:14.237Z,76.20
2018-06-02T06:51:42.573Z,76.05
2018-06-02T06:54:10.933Z,76.65
2018-06-02T06:56:39.268Z,76.57
2018-06-02T06:59:07.633Z,76.38
2018-06-02T07:01:35.973Z,76.63
2018-06-02T07:04:04.332Z,75.99
2018-06-02T07:06:32.656Z,76.06
2018-06-02T07:09:01.071Z,75.75
2018-06-02T07:11:29.359Z,76.40
2018-06-02T07:13:57.720Z,76.25
2018-06-02T07:16:26.072Z,75.89
2018-06-02T07:18:54.432Z,76.18
2018-06-02T07:21:22.789Z,75.93
2018-06-02T07:23:51.161Z,75.81
2018-06-02T07:26:19.500Z,76.05
2018-06-02T07:28:47.865Z,75.86
2018-06-02T07:31:16.217Z,75.67
2018-06-02T07:33:44.586Z,75.53
2018-06-02T07:36:12.929Z,75.34
2018-06-02T07:38:41.296Z,75.40
2018-06-02T07:41:09.695Z,75.36
2018-06-02T07:43:38.038Z,75.32
2018-06-02T07:46:06.394Z,75.38
2018-06-02T07:48:34.737Z,75.12
2018-06-02T07:51:03.105Z,75.01
2018-06-02T07:53:31.452Z,75.11
2018-06-02T07:55:59.809Z,75.48
2018-06-02T07:58:28.148Z,75.47
2018-06-02T08:00:56.520Z,75.39
2018-06-02T08:03:24.856Z,75.08
2018-06-02T08:05:53.217Z,75.03
2018-06-02T08:08:21.596Z,75.10
2018-06-02T08:10:49.924Z,74.76
2018-06-02T08:13:18.271Z,75.15
2018-06-02T08:15:46.632Z,74.89
2018-06-02T08:18:14.976Z,74.77
2018-06-02T08:20:43.340Z,74.48
2018-06-02T08:23:11.676Z,74.51
2018-06-02T08:25:40.041Z,74.38
2018-06-02T08:28:09.058Z,73.86
2018-06-02T08:30:37.425Z,73.85
2018-06-02T08:33:05.765Z,73.79
2018-06-02T08:35:34.134Z,73.70
2018-06-02T08:38:02.472Z,73.52
2018-06-02T08:40:30.837Z,73.84
2018-06-02T08:42:59.179Z,73.45
2018-06-02T08:45:27.541Z,73.56
2018-06-02T08:47:55.880Z,74.42
2018-06-02T08:50:24.250Z,73.96
2018-06-02T08:52:52.592Z,73.62
2018-06-02T08:55:20.958Z,73.54
2018-06-02T08:57:49.302Z,73.57
2018-06-02T09:00:17.668Z,73.53
2018-06-02T09:02:46.013Z,72.83
2018-06-02T09:05:14.380Z,73.07
2018-06-02T09:07:42.713Z,73.54
2018-06-02T09:10:11.084Z,73.16
2018-06-02T09:12:39.459Z,73.73
2018-06-02T09:15:07.825Z,73.95
2018-06-02T09:17:36.168Z,73.87
2018-06-02T09:20:04.525Z,73.67
2018-06-02T09:22:32.860Z,73.60
2018-06-02T09:25:01.240Z,73.68
2018-06-02T09:27:29.583Z,73.59
2018-06-02T09:29:57.949Z,73.47
2018-06-02T09:32:26.294Z,73.47
2018-06-02T09:34:54.665Z,73.14
2018-06-02T09:37:23.009Z,73.73
2018-06-02T09:39:51.375Z,73.45
2018-06-02T09:42:19.710Z,73.90
2018-06-02T09:44:48.081Z,73.54
2018-06-02T09:47:16.425Z,73.19
2018-06-02T09:49:44.768Z,72.44
2018-06-02T09:52:13.121Z,73.00
2018-06-02T09:54:41.477Z,72.47
2018-06-02T09:57:09.844Z,73.11
2018-06-02T09:59:38.176Z,72.65
2018-06-02T10:02:06.542Z,72.60
2018-06-02T10:04:34.924Z,72.77
2018-06-02T10:07:03.236Z,72.45
2018-06-02T10:09:31.581Z,72.72
2018-06-02T10:11:59.958Z,73.00
2018-06-02T10:14:28.289Z,73.26
2018-06-02T10:16:56.648Z,73.03
2018-06-02T10:19:24.984Z,72.43
2018-06-02T10:21:53.469Z,72.92
2018-06-02T10:24:21.806Z,73.37
2018-06-02T10:26:50.171Z,73.15
2018-06-02T10:29:18.508Z,73.12
2018-06-02T10:31:46.876Z,73.46
2018-06-02T10:34:15.212Z,73.44
2018-06-02T10:36:43.574Z,73.42
2018-06-02T10:39:11.924Z,70.15
2018-06-02T10:41:40.283Z,72.35
2018-06-02T10:44:09.393Z,73.68
2018-06-02T10:46:37.752Z,74.04
2018-06-02T10:49:06.093Z,74.79
2018-06-02T10:51:34.461Z,74.54
2018-06-02T10:54:02.805Z,74.45
2018-06-02T10:56:31.165Z,74.61
2018-06-02T10:58:59.504Z,74.39
2018-06-02T11:01:27.873Z,74.28
2018-06-02T11:03:57.024Z,74.80
2018-06-02T11:06:25.381Z,74.88
2018-06-02T11:08:53.720Z,74.81
2018-06-02T11:11:22.087Z,75.17
2018-06-02T11:13:50.419Z,75.12
2018-06-02T11:16:18.781Z,74.72
2018-06-02T11:18:47.122Z,74.47
2018-06-02T11:21:15.481Z,74.15
2018-06-02T11:23:44.758Z,73.77
2018-06-02T11:26:13.117Z,73.32
2018-06-02T11:28:41.568Z,73.82
2018-06-02T11:31:09.930Z,74.67
2018-06-02T11:33:38.269Z,74.41
2018-06-02T11:36:06.628Z,74.68
2018-06-02T11:38:34.964Z,75.07
2018-06-02T11:41:03.333Z,74.69
2018-06-02T11:43:31.681Z,75.02
2018-06-02T11:46:00.047Z,75.21
2018-06-02T11:48:28.380Z,75.40
2018-06-02T11:50:56.725Z,75.19
2018-06-02T11:53:25.088Z,75.13
2018-06-02T11:55:53.437Z,75.00
2018-06-02T11:58:21.798Z,74.69
2018-06-02T12:00:50.144Z,74.34
2018-06-02T12:03:19.221Z,74.10
2018-06-02T12:05:47.565Z,73.92
2018-06-02T12:08:15.930Z,74.26
2018-06-02T12:10:44.269Z,73.91
2018-06-02T12:13:12.632Z,72.98
2018-06-02T12:15:40.972Z,72.33
2018-06-02T12:18:09.329Z,72.14
2018-06-02T12:20:37.710Z,72.54
2018-06-02T12:23:06.048Z,71.04
2018-06-02T12:25:34.392Z,70.65
2018-06-02T12:28:02.750Z,70.37
2018-06-02T12:30:31.093Z,70.35
2018-06-02T12:32:59.456Z,70.99
2018-06-02T12:35:27.821Z,70.18
2018-06-02T12:37:56.181Z,70.05
2018-06-02T12:40:24.533Z,70.47
2018-06-02T12:42:52.889Z,69.46
2018-06-02T12:45:21.231Z,68.69
2018-06-02T12:47:49.597Z,67.77
2018-06-02T12:50:17.937Z,68.25
2018-06-02T12:52:46.297Z,68.61
2018-06-02T12:55:14.633Z,69.42
2018-06-02T12:57:43.001Z,69.49
2018-06-02T13:00:11.339Z,69.72
2018-06-02T13:02:39.696Z,69.91
2018-06-02T13:05:08.033Z,70.09
2018-06-02T13:07:36.396Z,69.78
2018-06-02T13:10:04.741Z,70.26
2018-06-02T13:12:33.105Z,69.40
2018-06-02T13:15:01.445Z,69.38
2018-06-02T13:17:29.808Z,69.17
2018-06-02T13:19:58.149Z,69.70
2018-06-02T13:22:26.509Z,69.49
2018-06-02T13:24:54.852Z,69.87
2018-06-02T13:27:23.218Z,69.91
2018-06-02T13:29:51.557Z,69.77
2018-06-02T13:32:19.917Z,69.83
2018-06-02T13:34:49.173Z,70.11
2018-06-02T13:37:17.538Z,70.17
2018-06-02T13:39:45.881Z,69.93
2018-06-02T13:42:15.143Z,69.75
2018-06-02T13:44:43.484Z,70.22
2018-06-02T13:47:11.852Z,69.93
2018-06-02T13:49:40.188Z,69.98
2018-06-02T13:52:08.526Z,70.00
2018-06-02T13:54:36.880Z,69.90
2018-06-02T13:57:05.224Z,70.11
2018-06-02T13:59:33.585Z,69.99
2018-06-02T14:02:01.920Z,69.54
2018-06-02T14:04:30.280Z,70.01
2018-06-02T14:06:58.620Z,69.84
2018-06-02T14:09:26.985Z,70.10
2018-06-02T14:11:55.317Z,70.11
2018-06-02T14:14:23.673Z,69.99
2018-06-02T14:16:52.020Z,69.41
2018-06-02T14:19:20.388Z,69.13
2018-06-02T14:21:48.735Z,68.80
2018-06-02T14:24:17.089Z,68.85
2018-06-02T14:26:45.428Z,69.13
2018-06-02T14:29:13.783Z,68.40
2018-06-02T14:31:42.123Z,68.46
2018-06-02T14:34:10.493Z,68.06
2018-06-02T14:36:38.837Z,67.97
2018-06-02T14:39:07.201Z,67.51
2018-06-02T14:41:35.563Z,66.67
2018-06-02T14:44:03.941Z,66.09
2018-06-02T14:46:32.274Z,65.36
2018-06-02T14:49:00.634Z,65.47
2018-06-02T14:51:28.977Z,65.29
2018-06-02T14:53:57.332Z,66.29
2018-06-02T14:56:25.676Z,66.34
2018-06-02T14:58:54.037Z,64.30
2018-06-02T15:01:22.388Z,65.05
2018-06-02T15:03:50.768Z,66.02
2018-06-02T15:06:19.110Z,65.71
2018-06-02T15:08:47.469Z,65.00
2018-06-02T15:11:15.838Z,64.86
2018-06-02T15:13:44.168Z,64.61
2018-06-02T15:16:12.509Z,65.57
2018-06-02T15:18:40.873Z,65.01
2018-06-02T15:21:09.207Z,65.14
2018-06-02T15:23:37.560Z,65.46
2018-06-02T15:26:05.897Z,66.59
2018-06-02T15:28:34.256Z,66.98
2018-06-02T15:31:02.905Z,66.87
2018-06-02T15:33:31.669Z,67.23
2018-06-02T15:36:02.298Z,67.43
2018-06-02T15:38:31.010Z,67.29
2018-06-02T15:40:59.733Z,67.48
2018-06-02T15:43:28.496Z,67.52
2018-06-02T15:45:57.175Z,67.61
2018-06-02T15:48:25.879Z,66.42
2018-06-02T15:50:54.664Z,66.42
2018-06-02T15:53:23.470Z,66.85
2018-06-02T15:55:52.238Z,65.95
2018-06-02T15:58:20.601Z,66.52
2018-06-02T16:00:48.959Z,65.75
2018-06-02T16:03:17.300Z,66.02
2018-06-02T16:05:45.666Z,66.25
2018-06-02T16:08:14.000Z,66.49
2018-06-02T16:10:42.360Z,67.16
2018-06-02T16:13:10.695Z,67.15
2018-06-02T16:15:39.057Z,67.95
2018-06-02T16:18:07.393Z,67.44
2018-06-02T16:20:35.752Z,67.35
2018-06-02T16:23:04.098Z,67.14
2018-06-02T16:25:32.448Z,66.84
2018-06-02T16:28:00.792Z,66.36
2018-06-02T16:30:29.152Z,66.06
2018-06-02T16:32:58.554Z,65.88
2018-06-02T16:35:26.913Z,66.47
2018-06-02T16:37:55.253Z,66.11
2018-06-02T16:40:23.621Z,66.64
2018-06-02T16:43:30.801Z,67.17
2018-06-02T16:45:59.901Z,68.03
2018-06-02T16:48:28.979Z,66.56
2018-06-02T16:50:58.084Z,66.82
2018-06-02T16:53:27.158Z,67.50
2018-06-02T16:55:56.276Z,66.37
2018-06-02T16:58:25.400Z,66.90
2018-06-02T17:00:54.512Z,67.84
2018-06-02T17:03:23.704Z,67.45
2018-06-02T17:05:52.813Z,63.27
2018-06-02T17:08:21.898Z,66.19
2018-06-02T17:10:51.081Z,66.89
2018-06-02T17:13:20.156Z,67.49
2018-06-02T17:15:49.284Z,67.79
2018-06-02T17:18:19.378Z,67.91
2018-06-02T17:20:48.493Z,67.89
2018-06-02T17:23:17.568Z,67.62
2018-06-02T17:25:46.692Z,68.19
2018-06-02T17:28:15.773Z,67.83
2018-06-02T17:30:44.901Z,67.67
2018-06-02T17:33:14.036Z,68.19
2018-06-02T17:35:43.169Z,67.83
2018-06-02T17:38:12.336Z,67.87
2018-06-02T17:40:41.433Z,68.17
2018-06-02T17:43:10.520Z,68.24
2018-06-02T17:45:39.733Z,68.17
2018-06-02T17:48:08.818Z,68.93
2018-06-02T17:50:37.913Z,68.87
2018-06-02T17:53:07.100Z,68.75
2018-06-02T17:55:36.221Z,68.49
2018-06-02T17:58:05.397Z,68.55
2018-06-02T18:00:34.501Z,68.73
2018-06-02T18:03:03.592Z,67.97
2018-06-02T18:05:32.704Z,68.59
2018-06-02T18:08:01.793Z,68.78
2018-06-02T18:10:30.900Z,68.84
2018-06-02T18:13:00.002Z,68.56
2018-06-02T18:15:29.104Z,69.32
2018-06-02T18:17:58.245Z,69.18
2018-06-02T18:20:27.564Z,68.85
2018-06-02T18:22:56.654Z,68.87
2018-06-02T18:25:25.860Z,69.13
2018-06-02T18:27:55.033Z,69.60
2018-06-02T18:30:24.249Z,68.90
2018-06-02T18:32:53.352Z,69.15
2018-06-02T18:35:22.465Z,69.54
2018-06-02T18:37:51.621Z,69.52
2018-06-02T18:40:21.753Z,68.91
2018-06-02T18:42:50.924Z,69.27
2018-06-02T18:45:20.041Z,69.17
2018-06-02T18:47:49.132Z,69.73
2018-06-02T18:50:18.233Z,69.65
2018-06-02T18:52:47.405Z,70.06
2018-06-02T18:55:16.521Z,70.77
2018-06-02T18:57:45.614Z,70.83
2018-06-02T19:00:14.737Z,69.81
2018-06-02T19:02:43.817Z,71.06
2018-06-02T19:05:13.000Z,70.57
2018-06-02T19:07:42.176Z,70.50
2018-06-02T19:10:11.284Z,70.36
2018-06-02T19:12:40.388Z,71.99
2018-06-02T19:15:10.576Z,71.63
2018-06-02T19:17:39.699Z,71.69
2018-06-02T19:20:08.777Z,72.64
2018-06-02T19:22:38.005Z,72.47
2018-06-02T19:25:07.170Z,73.49
2018-06-02T19:27:36.273Z,74.01
2018-06-02T19:30:06.353Z,73.45
2018-06-02T19:32:35.460Z,73.54
2018-06-02T19:35:04.565Z,73.35
2018-06-02T19:37:33.700Z,73.12
2018-06-02T19:40:02.861Z,73.46
2018-06-02T19:42:31.976Z,73.53
2018-06-02T19:45:01.149Z,72.80
2018-06-02T19:47:30.364Z,72.66
2018-06-02T19:49:59.457Z,73.33
2018-06-02T19:52:28.657Z,72.93
2018-06-02T19:54:57.827Z,73.30
2018-06-02T19:57:26.969Z,73.30
2018-06-02T19:59:56.062Z,72.82
2018-06-02T20:02:25.252Z,73.13
2018-06-02T20:04:54.341Z,73.06
2018-06-02T20:07:23.453Z,73.17
2018-06-02T20:09:53.620Z,72.67
2018-06-02T20:12:22.737Z,72.57
2018-06-02T20:14:51.886Z,72.65
2018-06-02T20:17:20.976Z,73.73
2018-06-02T20:19:50.437Z,73.54
2018-06-02T20:22:19.549Z,74.54
2018-06-02T20:24:52.180Z,74.52
2018-06-02T20:27:22.320Z,74.78
2018-06-02T20:29:51.432Z,75.47
2018-06-02T20:32:20.552Z,75.48
2018-06-02T20:34:49.659Z,74.92
2018-06-02T20:37:18.813Z,74.52
2018-06-02T20:39:47.992Z,74.50
2018-06-02T20:42:17.113Z,74.46
2018-06-02T20:44:46.220Z,74.72
2018-06-02T20:47:15.354Z,74.83
2018-06-02T20:49:44.456Z,75.06
2018-06-02T20:52:13.586Z,74.45
2018-06-02T20:54:42.689Z,74.46
2018-06-02T20:57:12.889Z,74.46
2018-06-02T20:59:41.993Z,74.25
2018-06-02T21:02:11.117Z,74.69
2018-06-02T21:04:40.256Z,74.20
2018-06-02T21:07:09.745Z,74.50
2018-06-02T21:09:38.832Z,74.09
2018-06-02T21:12:07.959Z,73.21
2018-06-02T21:14:37.055Z,73.64
2018-06-02T21:17:06.178Z,74.41
2018-06-02T21:19:35.293Z,74.78
2018-06-02T21:22:04.429Z,74.81
2018-06-02T21:24:33.663Z,74.44
2018-06-02T21:27:02.768Z,74.08
2018-06-02T21:29:31.909Z,74.00
2018-06-02T21:32:01.037Z,74.81
2018-06-02T21:34:30.139Z,73.54
2018-06-02T21:36:59.293Z,73.96
2018-06-02T21:39:28.380Z,73.86
2018-06-02T21:41:57.614Z,73.73
2018-06-02T21:44:26.708Z,73.96
2018-06-02T21:46:55.833Z,74.87
2018-06-02T21:49:24.983Z,74.60
2018-06-02T21:51:54.059Z,74.44
2018-06-02T21:54:23.248Z,74.72
2018-06-02T21:56:52.376Z,73.79
2018-06-02T21:59:21.558Z,74.26
2018-06-02T22:01:50.706Z,74.06
2018-06-02T22:04:19.784Z,74.37
2018-06-02T22:06:48.904Z,73.95
2018-06-02T22:09:18.029Z,74.12
2018-06-02T22:11:47.138Z,74.22
2018-06-02T22:14:16.325Z,74.72
2018-06-02T22:16:45.438Z,74.26
2018-06-02T22:19:14.552Z,74.63
2018-06-02T22:21:43.637Z,74.28
2018-06-02T22:24:12.769Z,74.02
2018-06-02T22:26:42.360Z,74.54
2018-06-02T22:29:11.496Z,74.61
2018-06-02T22:31:40.597Z,74.83
2018-06-02T22:34:09.725Z,74.44
2018-06-02T22:36:38.812Z,74.65
2018-06-02T22:39:08.020Z,74.41
2018-06-02T22:41:37.105Z,74.56
2018-06-02T22:44:06.201Z,74.37
2018-06-02T22:46:35.347Z,75.03
2018-06-02T22:49:04.466Z,75.59
2018-06-02T22:51:44.725Z,75.16
2018-06-02T22:54:13.929Z,74.66
2018-06-02T22:56:43.072Z,75.08
2018-06-02T22:59:13.224Z,75.22
2018-06-02T23:01:42.341Z,75.22
2018-06-02T23:04:11.261Z,74.95
2018-06-02T23:06:40.136Z,75.09
2018-06-02T23:09:08.980Z,74.74
2018-06-02T23:11:37.773Z,75.43
2018-06-02T23:14:06.592Z,74.93
2018-06-02T23:16:35.392Z,74.16
2018-06-02T23:19:04.213Z,74.37
2018-06-02T23:21:33.505Z,74.28
2018-06-02T23:24:02.325Z,75.04
2018-06-02T23:26:31.113Z,75.06
2018-06-02T23:28:59.937Z,75.58
2018-06-02T23:31:28.748Z,76.46
2018-06-02T23:33:57.568Z,75.63
2018-06-02T23:36:26.433Z,76.16
2018-06-02T23:38:55.265Z,76.78
2018-06-02T23:41:24.100Z,76.99
2018-06-02T23:43:52.923Z,76.69
2018-06-02T23:46:21.730Z,76.54
2018-06-02T23:48:50.553Z,77.27
2018-06-02T23:51:19.357Z,77.18
2018-06-02T23:53:48.181Z,77.08
2018-06-02T23:56:16.981Z,76.79
2018-06-02T23:58:45.797Z,76.16
